createdAt,value
2023-05-04T00:00:20.518Z,85.07
2023-05-04T00:01:20.504Z,85.09
2023-05-04T00:02:20.497Z,85.11
2023-05-04T00:03:20.558Z,85.16
2023-05-04T00:04:20.449Z,85.24
2023-05-04T00:05:20.441Z,84.90
2023-05-04T00:06:20.414Z,84.77
2023-05-04T00:07:20.441Z,84.46
2023-05-04T00:08:20.401Z,84.41
2023-05-04T00:09:20.382Z,84.50
2023-05-04T00:10:20.390Z,84.59
2023-05-04T00:11:20.347Z,84.41
2023-05-04T00:12:20.354Z,84.31
2023-05-04T00:13:20.334Z,84.34
2023-05-04T00:14:20.352Z,84.44
2023-05-04T00:15:20.302Z,84.52
2023-05-04T00:16:20.311Z,84.54
2023-05-04T00:17:20.307Z,84.61
2023-05-04T00:18:20.278Z,84.59
2023-05-04T00:19:20.253Z,84.67
2023-05-04T00:20:20.254Z,84.79
2023-05-04T00:21:20.237Z,84.92
2023-05-04T00:22:20.246Z,85.09
2023-05-04T00:23:20.221Z,85.25
2023-05-04T00:24:20.185Z,85.27
2023-05-04T00:25:20.180Z,85.41
2023-05-04T00:26:20.165Z,85.34
2023-05-04T00:27:20.164Z,85.31
2023-05-04T00:28:20.152Z,85.26
2023-05-04T00:29:20.172Z,85.19
2023-05-04T00:30:20.119Z,85.34
2023-05-04T00:31:20.179Z,85.30
2023-05-04T00:32:20.097Z,85.43
2023-05-04T00:33:20.067Z,85.60
2023-05-04T00:34:20.062Z,85.77
2023-05-04T00:35:20.078Z,85.88
2023-05-04T00:36:20.056Z,86.08
2023-05-04T00:37:20.018Z,86.16
2023-05-04T00:38:20.040Z,86.20
2023-05-04T00:39:20.009Z,86.35
2023-05-04T00:40:20.007Z,86.51
2023-05-04T00:41:19.983Z,86.71
2023-05-04T00:42:19.950Z,86.79
2023-05-04T00:43:19.941Z,86.87
2023-05-04T00:44:19.936Z,87.01
2023-05-04T00:45:19.925Z,87.09
2023-05-04T00:46:19.906Z,87.08
2023-05-04T00:47:20.088Z,87.01
2023-05-04T00:48:19.879Z,86.86
2023-05-04T00:49:19.883Z,86.88
2023-05-04T00:50:19.860Z,86.94
2023-05-04T00:51:19.840Z,87.00
2023-05-04T00:52:19.860Z,87.02
2023-05-04T00:53:19.830Z,86.98
2023-05-04T00:54:19.819Z,87.07
2023-05-04T00:55:19.786Z,87.18
2023-05-04T00:56:19.777Z,87.20
2023-05-04T00:57:19.790Z,87.14
2023-05-04T00:58:19.772Z,87.12
2023-05-04T00:59:19.744Z,87.22
2023-05-04T01:00:26.643Z,87.15
2023-05-04T01:01:19.823Z,87.10
2023-05-04T01:02:19.771Z,87.02
2023-05-04T01:03:19.812Z,87.00
2023-05-04T01:04:19.693Z,87.00
2023-05-04T01:05:19.695Z,86.97
2023-05-04T01:06:19.652Z,87.17
2023-05-04T01:07:19.684Z,87.25
2023-05-04T01:08:19.642Z,87.34
2023-05-04T01:09:19.637Z,87.28
2023-05-04T01:10:19.648Z,87.29
2023-05-04T01:11:19.631Z,87.27
2023-05-04T01:12:19.576Z,87.51
2023-05-04T01:13:19.581Z,87.57
2023-05-04T01:14:19.572Z,87.62
2023-05-04T01:15:19.601Z,87.79
2023-05-04T01:16:19.645Z,87.87
2023-05-04T01:17:19.593Z,87.96
2023-05-04T01:18:19.510Z,88.04
2023-05-04T01:19:19.483Z,88.15
2023-05-04T01:20:19.653Z,88.26
2023-05-04T01:21:19.455Z,88.34
2023-05-04T01:22:19.456Z,88.44
2023-05-04T01:23:19.433Z,88.47
2023-05-04T01:24:19.423Z,88.60
2023-05-04T01:25:19.449Z,88.70
2023-05-04T01:26:19.397Z,88.74
2023-05-04T01:27:19.407Z,88.83
2023-05-04T01:28:19.375Z,88.91
2023-05-04T01:29:19.362Z,89.00
2023-05-04T01:30:19.363Z,89.04
2023-05-04T01:31:19.397Z,89.06
2023-05-04T01:32:19.322Z,88.97
2023-05-04T01:33:19.303Z,88.76
2023-05-04T01:34:19.312Z,88.70
2023-05-04T01:35:19.282Z,88.66
2023-05-04T01:36:19.270Z,88.70
2023-05-04T01:37:19.274Z,88.79
2023-05-04T01:38:19.257Z,88.74
2023-05-04T01:39:19.231Z,88.71
2023-05-04T01:40:19.269Z,88.68
2023-05-04T01:41:19.195Z,88.69
2023-05-04T01:42:19.199Z,88.69
2023-05-04T01:43:19.171Z,88.71
2023-05-04T01:44:19.156Z,88.65
2023-05-04T01:45:19.182Z,88.84
2023-05-04T01:46:19.131Z,88.97
2023-05-04T01:47:19.128Z,89.08
2023-05-04T01:48:19.141Z,89.06
2023-05-04T01:49:19.095Z,89.05
2023-05-04T01:50:19.116Z,89.02
2023-05-04T01:51:19.092Z,88.98
2023-05-04T01:52:19.063Z,89.09
2023-05-04T01:53:19.051Z,89.13
2023-05-04T01:54:19.032Z,89.21
2023-05-04T01:55:19.033Z,89.22
2023-05-04T01:56:19.010Z,89.34
2023-05-04T01:57:19.007Z,89.47
2023-05-04T01:58:18.987Z,89.46
2023-05-04T01:59:18.985Z,89.43
2023-05-04T02:00:18.959Z,89.39
2023-05-04T02:01:19.049Z,89.36
2023-05-04T02:02:18.942Z,89.40
2023-05-04T02:03:19.059Z,89.47
2023-05-04T02:04:19.004Z,89.52
2023-05-04T02:05:19.042Z,89.58
2023-05-04T02:06:18.896Z,89.65
2023-05-04T02:07:18.898Z,89.73
2023-05-04T02:08:18.854Z,89.83
2023-05-04T02:09:18.862Z,89.96
2023-05-04T02:10:18.865Z,89.95
2023-05-04T02:11:18.816Z,90.12
2023-05-04T02:12:18.854Z,90.36
2023-05-04T02:13:18.862Z,90.40
2023-05-04T02:14:18.788Z,90.42
2023-05-04T02:15:18.786Z,90.40
2023-05-04T02:16:18.799Z,90.42
2023-05-04T02:17:18.802Z,90.39
2023-05-04T02:18:18.735Z,90.36
2023-05-04T02:19:18.747Z,90.49
2023-05-04T02:20:18.791Z,90.54
2023-05-04T02:21:18.698Z,90.62
2023-05-04T02:22:18.677Z,90.64
2023-05-04T02:23:18.697Z,90.58
2023-05-04T02:24:18.665Z,90.56
2023-05-04T02:25:18.667Z,90.54
2023-05-04T02:26:18.651Z,90.52
2023-05-04T02:27:18.637Z,90.66
2023-05-04T02:28:18.605Z,90.80
2023-05-04T02:29:18.603Z,90.71
2023-05-04T02:30:18.598Z,90.87
2023-05-04T02:31:18.600Z,90.91
2023-05-04T02:32:18.585Z,90.91
2023-05-04T02:33:18.589Z,90.83
2023-05-04T02:34:18.557Z,90.76
2023-05-04T02:35:18.531Z,90.92
2023-05-04T02:36:18.524Z,90.93
2023-05-04T02:37:18.549Z,90.90
2023-05-04T02:38:18.487Z,91.06
2023-05-04T02:39:18.476Z,91.14
2023-05-04T02:40:18.510Z,91.17
2023-05-04T02:41:18.467Z,91.28
2023-05-04T02:42:18.462Z,91.25
2023-05-04T02:43:18.488Z,91.28
2023-05-04T02:44:18.436Z,91.57
2023-05-04T02:45:18.514Z,91.73
2023-05-04T02:46:18.421Z,91.87
2023-05-04T02:47:18.408Z,91.75
2023-05-04T02:48:18.408Z,91.95
2023-05-04T02:49:18.390Z,91.94
2023-05-04T02:50:18.348Z,91.98
2023-05-04T02:51:18.357Z,92.00
2023-05-04T02:52:18.312Z,91.90
2023-05-04T02:53:18.360Z,91.63
2023-05-04T02:54:18.331Z,91.58
2023-05-04T02:55:18.292Z,91.51
2023-05-04T02:56:18.260Z,91.54
2023-05-04T02:57:18.268Z,91.61
2023-05-04T02:58:18.297Z,91.69
2023-05-04T02:59:18.229Z,91.49
2023-05-04T03:00:18.216Z,91.29
2023-05-04T03:01:18.341Z,91.29
2023-05-04T03:02:18.202Z,91.32
2023-05-04T03:03:18.211Z,91.29
2023-05-04T03:04:18.188Z,91.43
2023-05-04T03:05:18.157Z,91.43
2023-05-04T03:06:18.156Z,91.51
2023-05-04T03:07:18.217Z,91.72
2023-05-04T03:08:18.093Z,91.81
2023-05-04T03:09:18.097Z,91.86
2023-05-04T03:10:18.085Z,91.88
2023-05-04T03:11:18.086Z,91.91
2023-05-04T03:12:18.060Z,92.12
2023-05-04T03:13:18.194Z,92.05
2023-05-04T03:14:18.026Z,92.13
2023-05-04T03:15:18.048Z,92.23
2023-05-04T03:16:18.058Z,92.23
2023-05-04T03:17:18.008Z,92.21
2023-05-04T03:18:18.002Z,92.29
2023-05-04T03:19:18.001Z,92.29
2023-05-04T03:20:17.958Z,92.19
2023-05-04T03:21:17.982Z,92.11
2023-05-04T03:22:17.940Z,92.15
2023-05-04T03:23:17.941Z,92.14
2023-05-04T03:24:17.901Z,92.22
2023-05-04T03:25:17.905Z,92.19
2023-05-04T03:26:17.884Z,92.27
2023-05-04T03:27:17.874Z,92.20
2023-05-04T03:28:17.856Z,92.30
2023-05-04T03:29:17.858Z,92.33
2023-05-04T03:30:17.854Z,92.36
2023-05-04T03:31:17.877Z,92.30
2023-05-04T03:32:17.796Z,92.42
2023-05-04T03:33:17.813Z,92.36
2023-05-04T03:34:17.772Z,92.36
2023-05-04T03:35:24.266Z,92.38
2023-05-04T03:36:17.803Z,92.13
2023-05-04T03:37:17.752Z,92.05
2023-05-04T03:38:17.720Z,92.08
2023-05-04T03:39:17.753Z,92.15
2023-05-04T03:40:17.700Z,92.22
2023-05-04T03:41:17.700Z,92.29
2023-05-04T03:42:17.748Z,92.49
2023-05-04T03:43:17.678Z,92.45
2023-05-04T03:44:17.643Z,92.59
2023-05-04T03:45:17.637Z,92.60
2023-05-04T03:46:17.679Z,92.60
2023-05-04T03:47:17.633Z,92.86
2023-05-04T03:48:17.691Z,92.85
2023-05-04T03:49:17.583Z,92.94
2023-05-04T03:50:17.629Z,93.17
2023-05-04T03:51:17.566Z,93.21
2023-05-04T03:52:17.561Z,93.17
2023-05-04T03:53:17.542Z,93.03
2023-05-04T03:54:17.524Z,92.93
2023-05-04T03:55:17.496Z,92.83
2023-05-04T03:56:17.503Z,92.77
2023-05-04T03:57:17.491Z,92.83
2023-05-04T03:58:17.473Z,92.86
2023-05-04T03:59:17.466Z,93.04
2023-05-04T04:00:17.455Z,93.22
2023-05-04T04:01:17.422Z,93.27
2023-05-04T04:02:17.463Z,93.24
2023-05-04T04:03:17.603Z,93.17
2023-05-04T04:04:17.422Z,93.19
2023-05-04T04:05:17.376Z,93.31
2023-05-04T04:06:17.365Z,93.23
2023-05-04T04:07:17.376Z,93.29
2023-05-04T04:08:17.354Z,93.29
2023-05-04T04:09:17.332Z,93.29
2023-05-04T04:10:17.317Z,93.15
2023-05-04T04:11:17.309Z,93.09
2023-05-04T04:12:17.292Z,93.00
2023-05-04T04:13:17.336Z,93.06
2023-05-04T04:14:17.295Z,93.04
2023-05-04T04:15:17.251Z,93.03
2023-05-04T04:16:17.285Z,93.05
2023-05-04T04:17:17.254Z,92.92
2023-05-04T04:18:17.230Z,92.78
2023-05-04T04:19:17.215Z,92.69
2023-05-04T04:20:17.219Z,92.48
2023-05-04T04:21:17.178Z,92.52
2023-05-04T04:22:17.177Z,92.56
2023-05-04T04:23:17.151Z,92.49
2023-05-04T04:24:17.154Z,92.49
2023-05-04T04:25:17.135Z,92.52
2023-05-04T04:26:17.143Z,92.80
2023-05-04T04:27:17.104Z,93.05
2023-05-04T04:28:17.100Z,93.30
2023-05-04T04:29:17.074Z,93.25
2023-05-04T04:30:17.115Z,93.12
2023-05-04T04:31:17.151Z,93.02
2023-05-04T04:32:17.055Z,92.94
2023-05-04T04:33:17.084Z,92.82
2023-05-04T04:34:17.009Z,92.78
2023-05-04T04:35:17.000Z,92.84
2023-05-04T04:36:16.992Z,92.86
2023-05-04T04:37:16.970Z,92.90
2023-05-04T04:38:17.012Z,92.98
2023-05-04T04:39:17.079Z,92.90
2023-05-04T04:40:16.941Z,92.83
2023-05-04T04:41:16.937Z,92.68
2023-05-04T04:42:16.921Z,92.67
2023-05-04T04:43:16.912Z,92.61
2023-05-04T04:44:16.921Z,92.59
2023-05-04T04:45:16.873Z,92.64
2023-05-04T04:46:16.916Z,92.54
2023-05-04T04:47:16.869Z,92.37
2023-05-04T04:48:16.887Z,92.24
2023-05-04T04:49:16.869Z,92.09
2023-05-04T04:50:16.829Z,91.96
2023-05-04T04:51:16.795Z,91.84
2023-05-04T04:52:16.784Z,91.86
2023-05-04T04:53:16.768Z,91.94
2023-05-04T04:54:16.756Z,91.95
2023-05-04T04:55:16.743Z,91.86
2023-05-04T04:56:16.889Z,91.72
2023-05-04T04:57:16.711Z,91.73
2023-05-04T04:58:16.724Z,91.74
2023-05-04T04:59:16.704Z,91.83
2023-05-04T05:00:16.702Z,91.75
2023-05-04T05:01:16.778Z,91.69
2023-05-04T05:02:16.650Z,91.68
2023-05-04T05:03:16.899Z,91.62
2023-05-04T05:04:16.693Z,91.62
2023-05-04T05:05:16.660Z,91.62
2023-05-04T05:06:16.621Z,91.60
2023-05-04T05:07:16.654Z,91.45
2023-05-04T05:08:16.568Z,91.28
2023-05-04T05:09:16.569Z,91.12
2023-05-04T05:10:16.585Z,91.05
2023-05-04T05:11:16.557Z,91.03
2023-05-04T05:12:16.522Z,90.86
2023-05-04T05:13:16.668Z,90.68
2023-05-04T05:14:16.517Z,90.52
2023-05-04T05:15:16.511Z,90.33
2023-05-04T05:16:16.507Z,90.25
2023-05-04T05:17:16.464Z,90.10
2023-05-04T05:18:16.463Z,90.11
2023-05-04T05:19:16.458Z,90.09
2023-05-04T05:20:16.440Z,89.83
2023-05-04T05:21:16.487Z,89.79
2023-05-04T05:22:16.432Z,89.88
2023-05-04T05:23:16.399Z,89.77
2023-05-04T05:24:16.406Z,89.70
2023-05-04T05:25:16.367Z,89.59
2023-05-04T05:26:16.393Z,89.59
2023-05-04T05:27:16.357Z,89.26
2023-05-04T05:28:16.330Z,89.36
2023-05-04T05:29:16.337Z,89.15
2023-05-04T05:30:16.332Z,88.64
2023-05-04T05:31:16.347Z,88.50
2023-05-04T05:32:16.316Z,88.34
2023-05-04T05:33:16.266Z,88.06
2023-05-04T05:34:16.256Z,88.04
2023-05-04T05:35:16.273Z,87.75
2023-05-04T05:36:16.234Z,87.63
2023-05-04T05:37:16.222Z,87.06
2023-05-04T05:38:16.274Z,86.88
2023-05-04T05:39:16.236Z,86.91
2023-05-04T05:40:16.211Z,86.76
2023-05-04T05:41:16.182Z,86.86
2023-05-04T05:42:16.146Z,86.52
2023-05-04T05:43:16.170Z,85.94
2023-05-04T05:44:16.132Z,86.14
2023-05-04T05:45:16.120Z,85.98
2023-05-04T05:46:16.262Z,86.26
2023-05-04T05:47:16.103Z,85.98
2023-05-04T05:48:16.070Z,86.04
2023-05-04T05:49:16.063Z,85.63
2023-05-04T05:50:16.049Z,85.58
2023-05-04T05:51:16.056Z,85.76
2023-05-04T05:52:16.096Z,85.15
2023-05-04T05:53:16.058Z,85.76
2023-05-04T05:54:16.012Z,85.61
2023-05-04T05:55:15.983Z,85.50
2023-05-04T05:56:15.986Z,84.82
2023-05-04T05:57:15.968Z,84.70
2023-05-04T05:58:15.935Z,84.42
2023-05-04T05:59:15.979Z,84.54
2023-05-04T06:00:15.916Z,84.26
2023-05-04T06:01:15.988Z,84.21
2023-05-04T06:02:16.024Z,84.42
2023-05-04T06:03:16.088Z,83.70
2023-05-04T06:04:15.976Z,83.39
2023-05-04T06:05:15.903Z,83.47
2023-05-04T06:06:15.837Z,83.45
2023-05-04T06:07:15.854Z,83.53
2023-05-04T06:08:15.826Z,83.22
2023-05-04T06:09:15.808Z,83.11
2023-05-04T06:10:15.802Z,82.75
2023-05-04T06:11:15.774Z,82.50
2023-05-04T06:12:15.782Z,82.23
2023-05-04T06:13:15.877Z,82.35
2023-05-04T06:14:15.734Z,82.02
2023-05-04T06:15:15.726Z,81.94
2023-05-04T06:16:15.825Z,81.86
2023-05-04T06:17:15.700Z,81.44
2023-05-04T06:18:15.713Z,81.75
2023-05-04T06:19:15.689Z,81.17
2023-05-04T06:20:15.652Z,81.37
2023-05-04T06:21:15.655Z,80.76
2023-05-04T06:22:15.663Z,80.54
2023-05-04T06:23:15.646Z,80.62
2023-05-04T06:24:15.605Z,80.65
2023-05-04T06:25:15.605Z,80.79
2023-05-04T06:26:15.586Z,80.03
2023-05-04T06:27:15.575Z,80.29
2023-05-04T06:28:15.587Z,80.45
2023-05-04T06:29:15.544Z,80.05
2023-05-04T06:30:15.541Z,79.06
2023-05-04T06:31:15.544Z,79.22
2023-05-04T06:32:15.555Z,78.85
2023-05-04T06:33:15.495Z,78.96
2023-05-04T06:34:15.507Z,77.97
2023-05-04T06:35:15.480Z,77.67
2023-05-04T06:36:15.452Z,77.48
2023-05-04T06:37:16.254Z,76.96
2023-05-04T06:38:15.430Z,76.93
2023-05-04T06:39:15.435Z,76.73
2023-05-04T06:40:15.401Z,76.97
2023-05-04T06:41:15.397Z,76.83
2023-05-04T06:42:15.404Z,76.58
2023-05-04T06:43:15.380Z,76.43
2023-05-04T06:44:15.346Z,75.95
2023-05-04T06:45:15.442Z,75.50
2023-05-04T06:46:15.427Z,75.13
2023-05-04T06:47:15.313Z,74.80
2023-05-04T06:48:15.308Z,75.23
2023-05-04T06:49:15.287Z,75.08
2023-05-04T06:50:15.293Z,73.84
2023-05-04T06:51:15.275Z,73.87
2023-05-04T06:52:15.249Z,73.24
2023-05-04T06:53:15.251Z,71.88
2023-05-04T06:54:15.224Z,71.69
2023-05-04T06:55:15.204Z,70.83
2023-05-04T06:56:15.214Z,70.70
2023-05-04T06:57:15.193Z,71.03
2023-05-04T06:58:15.171Z,71.59
2023-05-04T06:59:15.177Z,71.71
2023-05-04T07:00:15.153Z,71.96
2023-05-04T07:01:16.946Z,70.72
2023-05-04T07:02:15.136Z,71.18
2023-05-04T07:03:15.183Z,71.21
2023-05-04T07:04:15.098Z,71.68
2023-05-04T07:05:15.080Z,71.08
2023-05-04T07:06:15.062Z,70.89
2023-05-04T07:07:15.119Z,70.17
2023-05-04T07:08:15.037Z,70.18
2023-05-04T07:09:15.112Z,68.78
2023-05-04T07:10:15.035Z,68.32
2023-05-04T07:11:15.056Z,66.71
2023-05-04T07:12:14.982Z,65.97
2023-05-04T07:13:15.088Z,65.98
2023-05-04T07:14:14.967Z,65.16
2023-05-04T07:15:14.946Z,64.42
2023-05-04T07:16:14.991Z,64.06
2023-05-04T07:17:14.929Z,63.34
2023-05-04T07:18:14.898Z,62.79
2023-05-04T07:19:14.919Z,61.45
2023-05-04T07:20:14.963Z,58.80
2023-05-04T07:22:14.872Z,57.18
2023-05-04T07:23:14.876Z,60.02
2023-05-04T07:24:14.844Z,60.40
2023-05-04T07:25:14.845Z,60.24
2023-05-04T07:26:14.866Z,58.67
2023-05-04T07:27:14.814Z,58.30
2023-05-04T07:28:14.788Z,56.16
2023-05-04T07:29:14.786Z,55.67
2023-05-04T07:30:14.778Z,54.40
2023-05-04T07:31:14.821Z,54.11
2023-05-04T07:32:14.784Z,54.06
2023-05-04T07:33:14.818Z,54.59
2023-05-04T07:34:14.825Z,53.36
2023-05-04T07:35:14.742Z,51.20
2023-05-04T07:36:14.745Z,51.17
2023-05-04T07:37:14.698Z,52.80
2023-05-04T07:38:14.885Z,53.24
2023-05-04T07:39:14.675Z,52.27
2023-05-04T07:40:14.685Z,53.73
2023-05-04T07:41:14.670Z,55.03
2023-05-04T07:42:14.676Z,56.19
2023-05-04T07:43:14.668Z,56.10
2023-05-04T07:44:14.621Z,55.89
2023-05-04T07:45:14.611Z,54.73
2023-05-04T07:46:14.657Z,52.02
2023-05-04T07:47:14.601Z,51.36
2023-05-04T07:48:14.688Z,51.99
2023-05-04T07:49:14.587Z,49.89
2023-05-04T07:50:14.575Z,50.44
2023-05-04T07:51:14.715Z,50.56
2023-05-04T07:52:14.601Z,51.14
2023-05-04T07:53:14.542Z,52.35
2023-05-04T07:54:14.564Z,51.44
2023-05-04T07:55:14.555Z,50.05
2023-05-04T07:56:14.499Z,47.75
2023-05-04T07:57:14.505Z,46.84
2023-05-04T07:58:14.524Z,46.97
2023-05-04T07:59:14.472Z,46.75
2023-05-04T08:00:14.482Z,45.49
2023-05-04T08:01:14.523Z,45.27
2023-05-04T08:02:14.487Z,47.20
2023-05-04T08:03:14.450Z,49.62
2023-05-04T08:04:14.457Z,50.70
2023-05-04T08:05:14.389Z,50.57
2023-05-04T08:06:14.439Z,49.64
2023-05-04T08:07:14.436Z,47.24
2023-05-04T08:08:14.370Z,46.27
2023-05-04T08:09:14.392Z,44.82
2023-05-04T08:10:14.409Z,45.50
2023-05-04T08:11:20.348Z,45.66
2023-05-04T08:12:14.331Z,45.42
2023-05-04T08:13:14.429Z,45.26
2023-05-04T08:14:14.316Z,45.13
2023-05-04T08:15:14.317Z,44.58
2023-05-04T08:16:14.412Z,45.81
2023-05-04T08:17:14.284Z,44.84
2023-05-04T08:18:14.292Z,44.53
2023-05-04T08:19:14.371Z,45.90
2023-05-04T08:20:14.312Z,44.44
2023-05-04T08:21:14.251Z,44.98
2023-05-04T08:22:14.437Z,47.07
2023-05-04T08:23:14.242Z,48.02
2023-05-04T08:24:14.218Z,47.32
2023-05-04T08:25:14.359Z,46.86
2023-05-04T08:26:14.200Z,45.50
2023-05-04T08:27:14.199Z,45.30
2023-05-04T08:28:14.281Z,46.37
2023-05-04T08:29:14.196Z,43.68
2023-05-04T08:30:14.168Z,43.61
2023-05-04T08:31:14.402Z,45.69
2023-05-04T08:32:14.160Z,45.65
2023-05-04T08:33:14.697Z,45.78
2023-05-04T08:34:14.293Z,45.87
2023-05-04T08:35:14.128Z,46.65
2023-05-04T08:36:14.124Z,46.80
2023-05-04T08:37:14.272Z,44.44
2023-05-04T08:38:14.087Z,44.79
2023-05-04T08:39:14.094Z,44.95
2023-05-04T08:40:14.274Z,47.07
2023-05-04T08:41:14.078Z,47.70
2023-05-04T08:42:14.082Z,47.53
2023-05-04T08:43:14.054Z,46.52
2023-05-04T08:44:14.089Z,46.72
2023-05-04T08:45:14.039Z,46.78
2023-05-04T08:46:14.112Z,48.22
2023-05-04T08:47:14.056Z,48.83
2023-05-04T08:48:14.034Z,47.10
2023-05-04T08:49:14.100Z,47.12
2023-05-04T08:50:14.009Z,44.12
2023-05-04T08:51:14.011Z,44.42
2023-05-04T08:52:14.051Z,46.12
2023-05-04T08:53:14.028Z,46.03
2023-05-04T08:54:13.978Z,46.90
2023-05-04T08:55:14.051Z,45.32
2023-05-04T08:56:14.098Z,43.17
2023-05-04T08:57:13.986Z,41.84
2023-05-04T08:58:13.944Z,42.71
2023-05-04T08:59:14.112Z,45.09
2023-05-04T09:00:13.921Z,43.35
2023-05-04T09:01:13.991Z,43.34
2023-05-04T09:02:14.189Z,44.69
2023-05-04T09:03:13.955Z,44.64
2023-05-04T09:04:13.902Z,45.14
2023-05-04T09:05:13.885Z,42.83
2023-05-04T09:06:13.866Z,43.39
2023-05-04T09:07:14.225Z,42.50
2023-05-04T09:08:14.111Z,41.97
2023-05-04T09:09:14.224Z,41.07
2023-05-04T09:10:14.004Z,40.63
2023-05-04T09:11:13.851Z,41.39
2023-05-04T09:12:14.058Z,40.43
2023-05-04T09:13:14.264Z,41.07
2023-05-04T09:14:14.910Z,42.39
2023-05-04T09:15:17.019Z,40.57
2023-05-04T09:16:16.967Z,40.83
2023-05-04T09:17:16.599Z,40.14
2023-05-04T09:18:15.842Z,39.30
2023-05-04T09:19:17.360Z,41.71
2023-05-04T09:20:15.576Z,41.60
2023-05-04T09:21:17.116Z,41.47
2023-05-04T09:22:16.150Z,41.71
2023-05-04T09:23:14.060Z,39.17
2023-05-04T09:24:13.734Z,38.25
2023-05-04T09:25:13.780Z,38.98
2023-05-04T09:26:13.712Z,39.34
2023-05-04T09:27:13.734Z,40.07
2023-05-04T09:28:13.702Z,39.93
2023-05-04T09:29:13.711Z,41.97
2023-05-04T09:30:13.690Z,41.14
2023-05-04T09:31:13.759Z,40.39
2023-05-04T09:32:13.659Z,39.52
2023-05-04T09:33:13.673Z,38.22
2023-05-04T09:34:13.746Z,37.99
2023-05-04T09:35:25.322Z,37.80
2023-05-04T09:36:13.652Z,38.51
2023-05-04T09:37:13.646Z,39.24
2023-05-04T09:38:13.628Z,37.94
2023-05-04T09:39:13.694Z,37.36
2023-05-04T09:40:13.631Z,35.55
2023-05-04T09:41:13.626Z,38.16
2023-05-04T09:42:13.687Z,39.54
2023-05-04T09:43:13.644Z,41.40
2023-05-04T09:44:13.688Z,41.99
2023-05-04T09:45:13.618Z,43.24
2023-05-04T09:46:13.668Z,39.94
2023-05-04T09:47:13.565Z,38.67
2023-05-04T09:48:13.552Z,37.25
2023-05-04T09:49:13.744Z,35.50
2023-05-04T09:50:13.592Z,36.55
2023-05-04T09:51:13.570Z,37.48
2023-05-04T09:52:13.547Z,38.02
2023-05-04T09:53:13.554Z,36.30
2023-05-04T09:54:13.504Z,36.73
2023-05-04T09:55:13.635Z,37.66
2023-05-04T09:56:13.537Z,37.48
2023-05-04T09:57:13.581Z,36.94
2023-05-04T09:58:13.478Z,38.59
2023-05-04T09:59:13.589Z,41.95
2023-05-04T10:00:13.476Z,41.17
2023-05-04T10:01:13.530Z,38.85
2023-05-04T10:02:22.532Z,40.89
2023-05-04T10:03:13.524Z,43.51
2023-05-04T10:04:13.455Z,43.16
2023-05-04T10:05:13.459Z,42.02
2023-05-04T10:06:13.412Z,39.83
2023-05-04T10:07:13.408Z,38.88
2023-05-04T10:08:13.421Z,40.11
2023-05-04T10:09:13.484Z,39.20
2023-05-04T10:10:13.415Z,42.43
2023-05-04T10:11:13.397Z,41.13
2023-05-04T10:12:13.424Z,39.41
2023-05-04T10:13:13.495Z,39.12
2023-05-04T10:14:14.191Z,37.88
2023-05-04T10:15:13.360Z,38.75
2023-05-04T10:16:13.382Z,39.47
2023-05-04T10:17:13.932Z,40.29
2023-05-04T10:18:13.346Z,39.47
2023-05-04T10:19:13.311Z,39.83
2023-05-04T10:20:13.317Z,40.77
2023-05-04T10:21:13.305Z,41.81
2023-05-04T10:22:13.300Z,40.55
2023-05-04T10:23:13.297Z,38.63
2023-05-04T10:24:13.272Z,38.14
2023-05-04T10:25:13.302Z,37.58
2023-05-04T10:26:13.266Z,36.16
2023-05-04T10:27:13.290Z,37.92
2023-05-04T10:28:13.253Z,38.35
2023-05-04T10:29:13.291Z,39.92
2023-05-04T10:30:13.281Z,40.28
2023-05-04T10:31:13.265Z,38.35
2023-05-04T10:32:13.191Z,38.52
2023-05-04T10:33:13.307Z,37.13
2023-05-04T10:34:13.236Z,37.55
2023-05-04T10:35:13.280Z,37.11
2023-05-04T10:36:13.170Z,39.34
2023-05-04T10:37:13.183Z,39.90
2023-05-04T10:38:13.193Z,39.86
2023-05-04T10:39:13.165Z,40.66
2023-05-04T10:40:13.153Z,42.45
2023-05-04T10:41:13.131Z,43.55
2023-05-04T10:42:13.168Z,41.13
2023-05-04T10:43:13.151Z,39.64
2023-05-04T10:44:13.100Z,39.13
2023-05-04T10:45:13.124Z,40.83
2023-05-04T10:46:13.159Z,40.01
2023-05-04T10:47:13.072Z,40.11
2023-05-04T10:48:13.168Z,40.85
2023-05-04T10:49:13.082Z,39.71
2023-05-04T10:50:13.074Z,40.16
2023-05-04T10:51:13.051Z,39.78
2023-05-04T10:52:13.029Z,38.50
2023-05-04T10:53:13.071Z,39.97
2023-05-04T10:54:13.088Z,39.75
2023-05-04T10:55:13.055Z,38.74
2023-05-04T10:56:13.011Z,38.28
2023-05-04T10:57:13.023Z,37.18
2023-05-04T10:58:13.051Z,37.30
2023-05-04T10:59:12.995Z,36.25
2023-05-04T11:00:13.050Z,36.92
2023-05-04T11:01:13.082Z,38.36
2023-05-04T11:02:13.072Z,38.21
2023-05-04T11:03:13.064Z,40.52
2023-05-04T11:04:12.979Z,39.03
2023-05-04T11:05:12.982Z,36.79
2023-05-04T11:06:12.987Z,38.13
2023-05-04T11:07:13.016Z,39.14
2023-05-04T11:08:13.784Z,37.09
2023-05-04T11:09:13.777Z,36.22
2023-05-04T11:10:13.046Z,38.49
2023-05-04T11:11:12.923Z,37.83
2023-05-04T11:12:12.878Z,36.08
2023-05-04T11:13:12.966Z,36.63
2023-05-04T11:14:12.883Z,36.99
2023-05-04T11:15:12.875Z,37.63
2023-05-04T11:16:12.939Z,39.32
2023-05-04T11:17:27.577Z,39.67
2023-05-04T11:18:13.062Z,40.47
2023-05-04T11:19:12.888Z,39.81
2023-05-04T11:20:12.887Z,38.70
2023-05-04T11:21:12.819Z,37.65
2023-05-04T11:22:12.868Z,36.62
2023-05-04T11:23:12.840Z,37.25
2023-05-04T11:24:13.011Z,36.94
2023-05-04T11:25:13.015Z,34.14
2023-05-04T11:26:12.799Z,32.11
2023-05-04T11:27:12.829Z,30.59
2023-05-04T11:28:14.383Z,30.56
2023-05-04T11:29:12.816Z,31.26
2023-05-04T11:30:12.788Z,32.38
2023-05-04T11:31:12.942Z,31.72
2023-05-04T11:32:12.754Z,31.07
2023-05-04T11:33:12.727Z,30.78
2023-05-04T11:34:13.074Z,30.56
2023-05-04T11:35:12.747Z,31.85
2023-05-04T11:36:12.824Z,30.80
2023-05-04T11:37:19.049Z,28.59
2023-05-04T11:38:19.358Z,29.12
2023-05-04T11:39:14.680Z,31.72
2023-05-04T11:40:14.836Z,33.07
2023-05-04T11:41:15.764Z,30.74
2023-05-04T11:42:14.812Z,33.38
2023-05-04T11:43:15.759Z,34.21
2023-05-04T11:44:14.842Z,32.50
2023-05-04T11:45:14.140Z,32.62
2023-05-04T11:46:17.285Z,31.16
2023-05-04T11:47:15.480Z,32.08
2023-05-04T11:48:16.479Z,32.51
2023-05-04T11:49:14.326Z,32.42
2023-05-04T11:50:13.789Z,33.28
2023-05-04T11:51:12.623Z,36.39
2023-05-04T11:52:12.634Z,37.88
2023-05-04T11:53:12.612Z,36.08
2023-05-04T11:54:12.581Z,36.53
2023-05-04T11:55:12.630Z,36.47
2023-05-04T11:56:12.598Z,33.96
2023-05-04T11:57:12.532Z,33.81
2023-05-04T11:58:12.529Z,35.62
2023-05-04T11:59:12.621Z,35.44
2023-05-04T12:00:12.578Z,36.09
2023-05-04T12:01:12.509Z,35.16
2023-05-04T12:02:12.556Z,35.14
2023-05-04T12:03:12.569Z,36.17
2023-05-04T12:04:12.600Z,33.99
2023-05-04T12:05:12.585Z,34.32
2023-05-04T12:06:12.660Z,32.67
2023-05-04T12:07:12.714Z,34.01
2023-05-04T12:08:12.593Z,33.23
2023-05-04T12:09:12.526Z,35.05
2023-05-04T12:10:12.541Z,35.95
2023-05-04T12:11:12.516Z,37.68
2023-05-04T12:12:13.162Z,38.00
2023-05-04T12:13:12.494Z,38.40
2023-05-04T12:14:12.395Z,38.66
2023-05-04T12:15:12.497Z,38.67
2023-05-04T12:16:12.503Z,41.38
2023-05-04T12:17:12.374Z,39.32
2023-05-04T12:18:12.377Z,37.73
2023-05-04T12:19:12.367Z,35.85
2023-05-04T12:20:12.504Z,34.19
2023-05-04T12:21:12.355Z,35.16
2023-05-04T12:22:12.350Z,36.80
2023-05-04T12:23:12.363Z,36.93
2023-05-04T12:24:12.309Z,38.77
2023-05-04T12:25:12.332Z,40.70
2023-05-04T12:26:12.289Z,44.08
2023-05-04T12:27:12.280Z,42.80
2023-05-04T12:28:12.282Z,42.09
2023-05-04T12:29:12.272Z,42.21
2023-05-04T12:30:12.244Z,42.35
2023-05-04T12:31:12.297Z,41.20
2023-05-04T12:32:12.285Z,43.12
2023-05-04T12:33:12.217Z,45.21
2023-05-04T12:34:12.302Z,45.06
2023-05-04T12:35:12.251Z,45.19
2023-05-04T12:36:12.181Z,45.63
2023-05-04T12:37:12.194Z,45.87
2023-05-04T12:38:12.186Z,44.54
2023-05-04T12:39:12.335Z,42.19
2023-05-04T12:40:27.275Z,43.21
2023-05-04T12:41:12.128Z,43.76
2023-05-04T12:42:12.177Z,44.87
2023-05-04T12:43:12.117Z,42.30
2023-05-04T12:44:12.090Z,45.00
2023-05-04T12:45:12.101Z,48.42
2023-05-04T12:46:12.108Z,45.54
2023-05-04T12:47:12.057Z,45.28
2023-05-04T12:48:12.060Z,43.17
2023-05-04T12:49:12.027Z,43.10
2023-05-04T12:50:12.020Z,42.63
2023-05-04T12:51:12.001Z,44.19
2023-05-04T12:52:12.033Z,46.22
2023-05-04T12:53:12.014Z,45.05